sensor_id;sensor_type;location;lat;lon;timestamp;pressure;altitude;pressure_sealevel;temperature;humidity
57668;BME280;43499;52.366;12.912;2022-10-16T00:00:55;100815.59;;;14.80;100.00
57668;BME280;43499;52.366;12.912;2022-10-16T00:01:57;100802.25;;;14.78;100.00
57668;BME280;43499;52.366;12.912;2022-10-16T00:02:58;100810.81;;;14.74;100.00
57668;BME280;43499;52.366;12.912;2022-10-16T00:04:00;100820.06;;;14.81;100.00
57668;BME280;43499;52.366;12.912;2022-10-16T00:05:01;100811.50;;;14.85;100.00
57668;BME280;43499;52.366;12.912;2022-10-16T00:06:05;100809.66;;;14.84;100.00
57668;BME280;43499;52.366;12.912;2022-10-16T00:07:06;100812.66;;;14.89;100.00
57668;BME280;43499;52.366;12.912;2022-10-16T00:08:09;100813.47;;;14.88;100.00
57668;BME280;43499;52.366;12.912;2022-10-16T00:09:10;100806.03;;;14.82;100.00
57668;BME280;43499;52.366;12.912;2022-10-16T00:10:12;100807.97;;;14.85;100.00
57668;BME280;43499;52.366;12.912;2022-10-16T00:12:24;100817.53;;;14.83;100.00
57668;BME280;43499;52.366;12.912;2022-10-16T00:13:26;100813.47;;;14.88;100.00
57668;BME280;43499;52.366;12.912;2022-10-16T00:14:28;100815.47;;;14.92;100.00
57668;BME280;43499;52.366;12.912;2022-10-16T00:15:29;100824.63;;;14.97;100.00
57668;BME280;43499;52.366;12.912;2022-10-16T00:16:33;100823.63;;;14.95;99.99
57668;BME280;43499;52.366;12.912;2022-10-16T00:17:35;100832.38;;;14.94;100.00
57668;BME280;43499;52.366;12.912;2022-10-16T00:18:37;100833.38;;;14.96;100.00
57668;BME280;43499;52.366;12.912;2022-10-16T00:19:39;100832.47;;;14.95;100.00
57668;BME280;43499;52.366;12.912;2022-10-16T00:20:40;100825.44;;;14.96;100.00
57668;BME280;43499;52.366;12.912;2022-10-16T00:22:00;100828.19;;;14.98;99.99
57668;BME280;43499;52.366;12.912;2022-10-16T00:23:19;100829.81;;;14.95;100.00
57668;BME280;43499;52.366;12.912;2022-10-16T00:24:21;100832.56;;;14.97;100.00
57668;BME280;43499;52.366;12.912;2022-10-16T00:25:25;100825.53;;;14.98;100.00
57668;BME280;43499;52.366;12.912;2022-10-16T00:26:29;100832.56;;;14.97;100.00
57668;BME280;43499;52.366;12.912;2022-10-16T00:27:30;100839.28;;;15.05;100.00
57668;BME280;43499;52.366;12.912;2022-10-16T00:28:33;100835.91;;;15.08;99.58
57668;BME280;43499;52.366;12.912;2022-10-16T00:29:34;100834.09;;;15.07;100.00
57668;BME280;43499;52.366;12.912;2022-10-16T00:30:39;100835.00;;;15.07;100.00
57668;BME280;43499;52.366;12.912;2022-10-16T00:31:40;100831.53;;;15.08;99.88
57668;BME280;43499;52.366;12.912;2022-10-16T00:32:43;100835.72;;;15.05;99.90
57668;BME280;43499;52.366;12.912;2022-10-16T00:33:44;100831.25;;;15.04;99.92
57668;BME280;43499;52.366;12.912;2022-10-16T00:34:46;100836.41;;;15.02;99.89
57668;BME280;43499;52.366;12.912;2022-10-16T00:35:48;100832.16;;;15.04;100.00
57668;BME280;43499;52.366;12.912;2022-10-16T00:36:51;100833.88;;;15.04;100.00
57668;BME280;43499;52.366;12.912;2022-10-16T00:37:52;100828.59;;;15.04;100.00
57668;BME280;43499;52.366;12.912;2022-10-16T00:38:55;100832.97;;;15.03;99.90
57668;BME280;43499;52.366;12.912;2022-10-16T00:40:00;100838.06;;;15.00;100.00
57668;BME280;43499;52.366;12.912;2022-10-16T00:41:01;100829.13;;;14.98;100.00
57668;BME280;43499;52.366;12.912;2022-10-16T00:42:04;100836.03;;;14.96;100.00
57668;BME280;43499;52.366;12.912;2022-10-16T00:43:32;100844.06;;;14.98;100.00
57668;BME280;43499;52.366;12.912;2022-10-16T00:45:51;100849.19;;;14.94;100.00
57668;BME280;43499;52.366;12.912;2022-10-16T00:46:53;100849.19;;;14.94;100.00
57668;BME280;43499;52.366;12.912;2022-10-16T00:47:55;100844.56;;;14.92;100.00
57668;BME280;43499;52.366;12.912;2022-10-16T00:49:02;100855.00;;;14.89;100.00
57668;BME280;43499;52.366;12.912;2022-10-16T00:50:30;100839.91;;;14.88;100.00
57668;BME280;43499;52.366;12.912;2022-10-16T00:51:40;100847.56;;;14.83;100.00
57668;BME280;43499;52.366;12.912;2022-10-16T00:52:47;100843.78;;;14.79;100.00
57668;BME280;43499;52.366;12.912;2022-10-16T00:53:50;100847.44;;;14.81;100.00
57668;BME280;43499;52.366;12.912;2022-10-16T00:54:52;100845.59;;;14.80;100.00
57668;BME280;43499;52.366;12.912;2022-10-16T00:55:54;100844.59;;;14.78;100.00
57668;BME280;43499;52.366;12.912;2022-10-16T00:56:59;100848.88;;;14.76;100.00
57668;BME280;43499;52.366;12.912;2022-10-16T00:58:01;100847.88;;;14.74;100.00
57668;BME280;43499;52.366;12.912;2022-10-16T00:59:06;100850.38;;;14.73;100.00
57668;BME280;43499;52.366;12.912;2022-10-16T01:00:12;100848.47;;;14.70;100.00
57668;BME280;43499;52.366;12.912;2022-10-16T01:01:14;100845.81;;;14.70;100.00
57668;BME280;43499;52.366;12.912;2022-10-16T01:02:16;100844.56;;;14.65;100.00
57668;BME280;43499;52.366;12.912;2022-10-16T01:03:30;100847.81;;;14.61;100.00
57668;BME280;43499;52.366;12.912;2022-10-16T01:04:35;100852.22;;;14.60;100.00
57668;BME280;43499;52.366;12.912;2022-10-16T01:05:45;100848.72;;;14.61;100.00
57668;BME280;43499;52.366;12.912;2022-10-16T01:07:14;100850.56;;;14.62;100.00
57668;BME280;43499;52.366;12.912;2022-10-16T01:08:22;100849.56;;;14.60;100.00
57668;BME280;43499;52.366;12.912;2022-10-16T01:09:31;100846.72;;;14.57;100.00
57668;BME280;43499;52.366;12.912;2022-10-16T01:10:52;100848.31;;;14.55;100.00
57668;BME280;43499;52.366;12.912;2022-10-16T01:12:15;100848.31;;;14.55;100.00
57668;BME280;43499;52.366;12.912;2022-10-16T01:13:22;100855.38;;;14.55;100.00
57668;BME280;43499;52.366;12.912;2022-10-16T01:14:48;100844.78;;;14.55;100.00
57668;BME280;43499;52.366;12.912;2022-10-16T01:16:11;100853.84;;;14.58;100.00
57668;BME280;43499;52.366;12.912;2022-10-16T01:17:19;100853.94;;;14.60;100.00
57668;BME280;43499;52.366;12.912;2022-10-16T01:18:37;100857.38;;;14.59;100.00
57668;BME280;43499;52.366;12.912;2022-10-16T01:21:33;100866.03;;;14.56;100.00
57668;BME280;43499;52.366;12.912;2022-10-16T01:24:17;100859.50;;;14.51;100.00
57668;BME280;43499;52.366;12.912;2022-10-16T01:28:29;100871.53;;;14.46;100.00
57668;BME280;43499;52.366;12.912;2022-10-16T01:31:05;100873.03;;;14.42;100.00
57668;BME280;43499;52.366;12.912;2022-10-16T01:32:18;100880.84;;;14.41;100.00
57668;BME280;43499;52.366;12.912;2022-10-16T01:33:26;100877.41;;;14.42;100.00
57668;BME280;43499;52.366;12.912;2022-10-16T01:34:38;100882.91;;;14.45;100.00
57668;BME280;43499;52.366;12.912;2022-10-16T01:35:46;100881.06;;;14.44;100.00
57668;BME280;43499;52.366;12.912;2022-10-16T01:37:04;100883.63;;;14.42;100.00
57668;BME280;43499;52.366;12.912;2022-10-16T01:38:35;100880.66;;;14.38;100.00
57668;BME280;43499;52.366;12.912;2022-10-16T01:39:38;100883.19;;;14.36;100.00
57668;BME280;43499;52.366;12.912;2022-10-16T01:40:48;100882.47;;;14.39;100.00
57668;BME280;43499;52.366;12.912;2022-10-16T01:41:58;100884.22;;;14.38;100.00
57668;BME280;43499;52.366;12.912;2022-10-16T01:43:22;100884.00;;;14.35;100.00
57668;BME280;43499;52.366;12.912;2022-10-16T01:44:29;100880.13;;;14.30;100.00
57668;BME280;43499;52.366;12.912;2022-10-16T01:45:33;100886.56;;;14.33;100.00
57668;BME280;43499;52.366;12.912;2022-10-16T01:46:37;100878.63;;;14.33;100.00
57668;BME280;43499;52.366;12.912;2022-10-16T01:47:40;100887.34;;;14.32;100.00
57668;BME280;43499;52.366;12.912;2022-10-16T01:48:42;100885.44;;;14.30;100.00
57668;BME280;43499;52.366;12.912;2022-10-16T01:49:45;100892.34;;;14.28;100.00
57668;BME280;43499;52.366;12.912;2022-10-16T01:50:59;100893.13;;;14.27;100.00
57668;BME280;43499;52.366;12.912;2022-10-16T01:52:05;100901.16;;;14.28;100.00
57668;BME280;43499;52.366;12.912;2022-10-16T01:53:09;100895.69;;;14.25;100.00
57668;BME280;43499;52.366;12.912;2022-10-16T01:54:13;100898.22;;;14.24;100.00
57668;BME280;43499;52.366;12.912;2022-10-16T01:55:22;100904.44;;;14.24;100.00
57668;BME280;43499;52.366;12.912;2022-10-16T01:56:26;100894.97;;;14.28;100.00
57668;BME280;43499;52.366;12.912;2022-10-16T01:57:29;100899.00;;;14.23;100.00
57668;BME280;43499;52.366;12.912;2022-10-16T01:58:36;100898.22;;;14.24;100.00
57668;BME280;43499;52.366;12.912;2022-10-16T01:59:44;100905.34;;;14.25;100.00
57668;BME280;43499;52.366;12.912;2022-10-16T02:00:47;100913.25;;;14.25;100.00
57668;BME280;43499;52.366;12.912;2022-10-16T02:01:52;100906.94;;;14.23;100.00
57668;BME280;43499;52.366;12.912;2022-10-16T02:02:56;100902.59;;;14.23;100.00
57668;BME280;43499;52.366;12.912;2022-10-16T02:04:05;100900.75;;;14.22;100.00
57668;BME280;43499;52.366;12.912;2022-10-16T02:05:11;100904.22;;;14.21;100.00
57668;BME280;43499;52.366;12.912;2022-10-16T02:06:15;100914.56;;;14.18;100.00
57668;BME280;43499;52.366;12.912;2022-10-16T02:07:17;100913.75;;;14.19;100.00
57668;BME280;43499;52.366;12.912;2022-10-16T02:08:21;100913.75;;;14.19;100.00
57668;BME280;43499;52.366;12.912;2022-10-16T02:09:24;100918.22;;;14.20;100.00
57668;BME280;43499;52.366;12.912;2022-10-16T02:10:27;100918.47;;;14.23;100.00
57668;BME280;43499;52.366;12.912;2022-10-16T02:11:33;100914.88;;;14.23;100.00
57668;BME280;43499;52.366;12.912;2022-10-16T02:12:36;100914.88;;;14.23;100.00
57668;BME280;43499;52.366;12.912;2022-10-16T02:14:17;100907.88;;;14.23;100.00
57668;BME280;43499;52.366;12.912;2022-10-16T02:15:18;100908.59;;;14.21;100.00
57668;BME280;43499;52.366;12.912;2022-10-16T02:16:20;100904.91;;;14.18;100.00
57668;BME280;43499;52.366;12.912;2022-10-16T02:17:24;100901.34;;;14.18;100.00
57668;BME280;43499;52.366;12.912;2022-10-16T02:18:26;100901.03;;;14.13;100.00
57668;BME280;43499;52.366;12.912;2022-10-16T02:19:30;100898.28;;;14.12;100.00
57668;BME280;43499;52.366;12.912;2022-10-16T02:20:38;100905.28;;;14.11;100.00
57668;BME280;43499;52.366;12.912;2022-10-16T02:21:57;100907.75;;;14.08;100.00
57668;BME280;43499;52.366;12.912;2022-10-16T02:23:00;100912.91;;;14.07;100.00
57668;BME280;43499;52.366;12.912;2022-10-16T02:24:08;100915.84;;;14.11;100.00
57668;BME280;43499;52.366;12.912;2022-10-16T02:25:29;100913.94;;;14.09;100.00
57668;BME280;43499;52.366;12.912;2022-10-16T02:26:43;100909.34;;;14.06;100.00
57668;BME280;43499;52.366;12.912;2022-10-16T02:28:00;100911.06;;;14.06;100.00
57668;BME280;43499;52.366;12.912;2022-10-16T02:29:07;100917.06;;;14.03;100.00
57668;BME280;43499;52.366;12.912;2022-10-16T02:30:19;100920.72;;;14.05;100.00
57668;BME280;43499;52.366;12.912;2022-10-16T02:31:26;100924.19;;;14.04;100.00
57668;BME280;43499;52.366;12.912;2022-10-16T02:32:32;100925.78;;;14.02;100.00
57668;BME280;43499;52.366;12.912;2022-10-16T02:33:34;100927.53;;;14.01;100.00
57668;BME280;43499;52.366;12.912;2022-10-16T02:34:39;100919.47;;;14.00;100.00
57668;BME280;43499;52.366;12.912;2022-10-16T02:35:41;100925.69;;;14.00;100.00
57668;BME280;43499;52.366;12.912;2022-10-16T02:36:45;100918.44;;;13.98;100.00
57668;BME280;43499;52.366;12.912;2022-10-16T02:37:49;100921.78;;;13.95;100.00
57668;BME280;43499;52.366;12.912;2022-10-16T02:38:53;100922.50;;;13.93;100.00
57668;BME280;43499;52.366;12.912;2022-10-16T02:39:57;100922.41;;;13.91;100.00
57668;BME280;43499;52.366;12.912;2022-10-16T02:40:59;100916.09;;;13.89;100.00
57668;BME280;43499;52.366;12.912;2022-10-16T02:42:01;100920.44;;;13.88;100.00
57668;BME280;43499;52.366;12.912;2022-10-16T02:43:04;100919.63;;;13.89;100.00
57668;BME280;43499;52.366;12.912;2022-10-16T02:44:05;100913.31;;;13.87;100.00
57668;BME280;43499;52.366;12.912;2022-10-16T02:45:08;100918.41;;;13.84;100.00
57668;BME280;43499;52.366;12.912;2022-10-16T02:46:09;100914.75;;;13.82;100.00
57668;BME280;43499;52.366;12.912;2022-10-16T02:47:11;100913.72;;;13.80;100.00
57668;BME280;43499;52.366;12.912;2022-10-16T02:48:13;100918.19;;;13.81;100.00
57668;BME280;43499;52.366;12.912;2022-10-16T02:49:15;100915.44;;;13.80;100.00
57668;BME280;43499;52.366;12.912;2022-10-16T02:50:17;100919.22;;;13.83;100.00
57668;BME280;43499;52.366;12.912;2022-10-16T02:51:19;100922.66;;;13.82;100.00
57668;BME280;43499;52.366;12.912;2022-10-16T02:52:21;100917.06;;;13.78;100.00
57668;BME280;43499;52.366;12.912;2022-10-16T02:53:22;100917.88;;;13.77;100.00
57668;BME280;43499;52.366;12.912;2022-10-16T02:54:23;100923.16;;;13.77;100.00
57668;BME280;43499;52.366;12.912;2022-10-16T02:55:25;100930.03;;;13.75;100.00
57668;BME280;43499;52.366;12.912;2022-10-16T02:56:26;100921.22;;;13.74;100.00
57668;BME280;43499;52.366;12.912;2022-10-16T02:57:27;100925.56;;;13.73;100.00
57668;BME280;43499;52.366;12.912;2022-10-16T02:58:28;100926.59;;;13.76;100.00
57668;BME280;43499;52.366;12.912;2022-10-16T02:59:30;100920.06;;;13.70;100.00
57668;BME280;43499;52.366;12.912;2022-10-16T03:00:31;100917.31;;;13.69;100.00
57668;BME280;43499;52.366;12.912;2022-10-16T03:01:32;100915.47;;;13.68;100.00
57668;BME280;43499;52.366;12.912;2022-10-16T03:02:33;100924.34;;;13.68;100.00
57668;BME280;43499;52.366;12.912;2022-10-16T03:03:34;100927.06;;;13.70;100.00
57668;BME280;43499;52.366;12.912;2022-10-16T03:04:36;100928.78;;;13.69;100.00
57668;BME280;43499;52.366;12.912;2022-10-16T03:05:37;100923.50;;;13.69;100.00
57668;BME280;43499;52.366;12.912;2022-10-16T03:06:38;100920.84;;;13.69;100.00
57668;BME280;43499;52.366;12.912;2022-10-16T03:07:39;100925.00;;;13.66;100.00
57668;BME280;43499;52.366;12.912;2022-10-16T03:08:40;100926.75;;;13.65;100.00
57668;BME280;43499;52.366;12.912;2022-10-16T03:09:41;100920.34;;;13.62;100.00
57668;BME280;43499;52.366;12.912;2022-10-16T03:10:42;100921.13;;;13.61;100.00
57668;BME280;43499;52.366;12.912;2022-10-16T03:11:43;100924.69;;;13.61;100.00
57668;BME280;43499;52.366;12.912;2022-10-16T03:12:45;100928.25;;;13.62;100.00
57668;BME280;43499;52.366;12.912;2022-10-16T03:13:46;100929.06;;;13.61;100.00
57668;BME280;43499;52.366;12.912;2022-10-16T03:14:47;100937.88;;;13.61;100.00
57668;BME280;43499;52.366;12.912;2022-10-16T03:15:48;100937.66;;;13.58;100.00
57668;BME280;43499;52.366;12.912;2022-10-16T03:16:49;100938.50;;;13.57;100.00
57668;BME280;43499;52.366;12.912;2022-10-16T03:17:50;100937.47;;;13.55;100.00
57668;BME280;43499;52.366;12.912;2022-10-16T03:18:51;100944.44;;;13.54;100.00
57668;BME280;43499;52.366;12.912;2022-10-16T03:19:52;100947.88;;;13.53;100.00
57668;BME280;43499;52.366;12.912;2022-10-16T03:20:54;100942.50;;;13.52;100.00
57668;BME280;43499;52.366;12.912;2022-10-16T03:21:55;100946.41;;;13.57;100.00
57668;BME280;43499;52.366;12.912;2022-10-16T03:22:57;100938.25;;;13.54;100.00
57668;BME280;43499;52.366;12.912;2022-10-16T03:23:58;100938.97;;;13.51;100.00
57668;BME280;43499;52.366;12.912;2022-10-16T03:24:59;100944.72;;;13.46;100.00
57668;BME280;43499;52.366;12.912;2022-10-16T03:26:00;100947.47;;;13.47;100.00
57668;BME280;43499;52.366;12.912;2022-10-16T03:27:01;100947.69;;;13.50;100.00
57668;BME280;43499;52.366;12.912;2022-10-16T03:28:03;100957.22;;;13.48;100.00
57668;BME280;43499;52.366;12.912;2022-10-16T03:29:04;100960.75;;;13.49;100.00
57668;BME280;43499;52.366;12.912;2022-10-16T03:30:06;100973.16;;;13.50;100.00
57668;BME280;43499;52.366;12.912;2022-10-16T03:31:08;100967.06;;;13.51;100.00
57668;BME280;43499;52.366;12.912;2022-10-16T03:32:09;100970.53;;;13.50;100.00
57668;BME280;43499;52.366;12.912;2022-10-16T03:33:10;100966.66;;;13.45;100.00
57668;BME280;43499;52.366;12.912;2022-10-16T03:34:11;100964.91;;;13.45;100.00
57668;BME280;43499;52.366;12.912;2022-10-16T03:35:12;100968.34;;;13.44;100.00
57668;BME280;43499;52.366;12.912;2022-10-16T03:36:13;100967.31;;;13.42;100.00
57668;BME280;43499;52.366;12.912;2022-10-16T03:37:15;100970.53;;;13.50;100.00
57668;BME280;43499;52.366;12.912;2022-10-16T03:38:16;100973.97;;;13.49;100.00
57668;BME280;43499;52.366;12.912;2022-10-16T03:39:17;100969.28;;;13.45;100.00
57668;BME280;43499;52.366;12.912;2022-10-16T03:40:18;100971.22;;;13.47;100.00
57668;BME280;43499;52.366;12.912;2022-10-16T03:41:19;100979.16;;;13.47;100.00
57668;BME280;43499;52.366;12.912;2022-10-16T03:42:20;100979.16;;;13.47;100.00
57668;BME280;43499;52.366;12.912;2022-10-16T03:43:21;100980.97;;;13.48;100.00
57668;BME280;43499;52.366;12.912;2022-10-16T03:44:23;100985.56;;;13.51;100.00
57668;BME280;43499;52.366;12.912;2022-10-16T03:45:24;100984.66;;;13.50;100.00
57668;BME280;43499;52.366;12.912;2022-10-16T03:46:25;100984.66;;;13.50;100.00
57668;BME280;43499;52.366;12.912;2022-10-16T03:47:26;100989.00;;;13.50;100.00
57668;BME280;43499;52.366;12.912;2022-10-16T03:48:28;100985.81;;;13.54;100.00
57668;BME280;43499;52.366;12.912;2022-10-16T03:49:29;100986.59;;;13.53;100.00
57668;BME280;43499;52.366;12.912;2022-10-16T03:50:31;100987.16;;;13.61;100.00
57668;BME280;43499;52.366;12.912;2022-10-16T03:51:32;100976.47;;;13.59;100.00
57668;BME280;43499;52.366;12.912;2022-10-16T03:52:33;100983.38;;;13.57;100.00
57668;BME280;43499;52.366;12.912;2022-10-16T03:53:34;100984.28;;;13.57;100.00
57668;BME280;43499;52.366;12.912;2022-10-16T03:54:35;100979.72;;;13.55;100.00
57668;BME280;43499;52.366;12.912;2022-10-16T03:55:37;100975.47;;;13.57;100.00
57668;BME280;43499;52.366;12.912;2022-10-16T03:56:38;100974.44;;;13.55;100.00
57668;BME280;43499;52.366;12.912;2022-10-16T03:57:39;100982.56;;;13.58;100.00
57668;BME280;43499;52.366;12.912;2022-10-16T03:58:40;100980.63;;;13.55;100.00
57668;BME280;43499;52.366;12.912;2022-10-16T03:59:41;100975.25;;;13.54;100.00
57668;BME280;43499;52.366;12.912;2022-10-16T04:00:44;100979.00;;;13.57;100.00
57668;BME280;43499;52.366;12.912;2022-10-16T04:01:45;100980.63;;;13.55;100.00
57668;BME280;43499;52.366;12.912;2022-10-16T04:02:46;100983.03;;;13.52;100.00
57668;BME280;43499;52.366;12.912;2022-10-16T04:03:47;100991.31;;;13.57;100.00
57668;BME280;43499;52.366;12.912;2022-10-16T04:04:49;100995.56;;;13.55;100.00
57668;BME280;43499;52.366;12.912;2022-10-16T04:05:50;100987.50;;;13.53;100.00
57668;BME280;43499;52.366;12.912;2022-10-16T04:06:51;100989.34;;;13.54;100.00
57668;BME280;43499;52.366;12.912;2022-10-16T04:07:52;100989.56;;;13.57;100.00
57668;BME280;43499;52.366;12.912;2022-10-16T04:08:53;100990.16;;;13.53;100.00
57668;BME280;43499;52.366;12.912;2022-10-16T04:09:54;100984.66;;;13.50;100.00
57668;BME280;43499;52.366;12.912;2022-10-16T04:10:56;100985.34;;;13.48;100.00
57668;BME280;43499;52.366;12.912;2022-10-16T04:11:57;100987.78;;;13.45;100.00
57668;BME280;43499;52.366;12.912;2022-10-16T04:12:58;100983.38;;;13.45;100.00
57668;BME280;43499;52.366;12.912;2022-10-16T04:14:00;100979.25;;;13.49;100.00
57668;BME280;43499;52.366;12.912;2022-10-16T04:15:01;100989.00;;;13.50;100.00
57668;BME280;43499;52.366;12.912;2022-10-16T04:16:02;100979.25;;;13.49;100.00
57668;BME280;43499;52.366;12.912;2022-10-16T04:17:04;100985.22;;;13.46;100.00
57668;BME280;43499;52.366;12.912;2022-10-16T04:18:05;100988.09;;;13.49;100.00
57668;BME280;43499;52.366;12.912;2022-10-16T04:19:07;100992.13;;;13.44;100.00
57668;BME280;43499;52.366;12.912;2022-10-16T04:20:08;100986.03;;;13.45;100.00
57668;BME280;43499;52.366;12.912;2022-10-16T04:21:09;100984.91;;;13.41;100.00
57668;BME280;43499;52.366;12.912;2022-10-16T04:22:10;100978.81;;;13.42;100.00
57668;BME280;43499;52.366;12.912;2022-10-16T04:23:11;100981.97;;;13.38;100.00
57668;BME280;43499;52.366;12.912;2022-10-16T04:24:13;100976.03;;;13.41;100.00
57668;BME280;43499;52.366;12.912;2022-10-16T04:25:14;100980.75;;;13.45;100.00
57668;BME280;43499;52.366;12.912;2022-10-16T04:26:15;100979.03;;;13.46;100.00
57668;BME280;43499;52.366;12.912;2022-10-16T04:27:16;100976.41;;;13.46;100.00
57668;BME280;43499;52.366;12.912;2022-10-16T04:28:17;100979.50;;;13.40;100.00
57668;BME280;43499;52.366;12.912;2022-10-16T04:29:19;100981.31;;;13.41;100.00
57668;BME280;43499;52.366;12.912;2022-10-16T04:30:20;100972.34;;;13.39;100.00
57668;BME280;43499;52.366;12.912;2022-10-16T04:31:22;100975.00;;;13.39;100.00
57668;BME280;43499;52.366;12.912;2022-10-16T04:32:23;100973.03;;;13.36;100.00
57668;BME280;43499;52.366;12.912;2022-10-16T04:33:24;100974.06;;;13.38;100.00
57668;BME280;43499;52.366;12.912;2022-10-16T04:34:25;100970.53;;;13.38;100.00
57668;BME280;43499;52.366;12.912;2022-10-16T04:35:26;100980.16;;;13.37;100.00
57668;BME280;43499;52.366;12.912;2022-10-16T04:36:27;100980.28;;;13.39;100.00
57668;BME280;43499;52.366;12.912;2022-10-16T04:37:29;100974.75;;;13.36;100.00
57668;BME280;43499;52.366;12.912;2022-10-16T04:38:30;100971.69;;;13.41;100.00
57668;BME280;43499;52.366;12.912;2022-10-16T04:39:31;100971.94;;;13.45;100.00
57668;BME280;43499;52.366;12.912;2022-10-16T04:40:32;100968.47;;;13.46;100.00
57668;BME280;43499;52.366;12.912;2022-10-16T04:41:33;100972.50;;;13.40;100.00
57668;BME280;43499;52.366;12.912;2022-10-16T04:42:34;100971.78;;;13.31;100.00
57668;BME280;43499;52.366;12.912;2022-10-16T04:43:36;100976.59;;;13.25;100.00
57668;BME280;43499;52.366;12.912;2022-10-16T04:44:37;100980.28;;;13.27;100.00
57668;BME280;43499;52.366;12.912;2022-10-16T04:45:38;100986.34;;;13.26;100.00
57668;BME280;43499;52.366;12.912;2022-10-16T04:46:39;100981.22;;;13.27;100.00
57668;BME280;43499;52.366;12.912;2022-10-16T04:47:40;100977.78;;;13.29;100.00
57668;BME280;43499;52.366;12.912;2022-10-16T04:48:41;100989.69;;;13.23;100.00
57668;BME280;43499;52.366;12.912;2022-10-16T04:49:42;100982.56;;;13.22;100.00
57668;BME280;43499;52.366;12.912;2022-10-16T04:50:43;100986.94;;;13.22;100.00
57668;BME280;43499;52.366;12.912;2022-10-16T04:51:44;100992.09;;;13.20;100.00
57668;BME280;43499;52.366;12.912;2022-10-16T04:52:46;100990.50;;;13.22;100.00
57668;BME280;43499;52.366;12.912;2022-10-16T04:53:47;100985.09;;;13.21;100.00
57668;BME280;43499;52.366;12.912;2022-10-16T04:54:48;100989.78;;;13.25;100.00
57668;BME280;43499;52.366;12.912;2022-10-16T04:55:51;100992.44;;;13.25;100.00
57668;BME280;43499;52.366;12.912;2022-10-16T04:56:52;100990.59;;;13.24;100.00
57668;BME280;43499;52.366;12.912;2022-10-16T04:57:54;100993.47;;;13.27;100.00
57668;BME280;43499;52.366;12.912;2022-10-16T04:58:55;100996.13;;;13.27;100.00
57668;BME280;43499;52.366;12.912;2022-10-16T04:59:56;100997.84;;;13.26;100.00
57668;BME280;43499;52.366;12.912;2022-10-16T05:00:57;101006.66;;;13.27;100.00
57668;BME280;43499;52.366;12.912;2022-10-16T05:01:58;100997.03;;;13.27;100.00
57668;BME280;43499;52.366;12.912;2022-10-16T05:02:59;101004.25;;;13.30;100.00
57668;BME280;43499;52.366;12.912;2022-10-16T05:04:01;101002.53;;;13.31;100.00
57668;BME280;43499;52.366;12.912;2022-10-16T05:05:02;101000.38;;;13.37;100.00
57668;BME280;43499;52.366;12.912;2022-10-16T05:06:07;101003.47;;;13.31;100.00
57668;BME280;43499;52.366;12.912;2022-10-16T05:07:08;100999.78;;;13.29;100.00
57668;BME280;43499;52.366;12.912;2022-10-16T05:08:10;100998.06;;;13.30;100.00
57668;BME280;43499;52.366;12.912;2022-10-16T05:09:11;101008.75;;;13.31;100.00
57668;BME280;43499;52.366;12.912;2022-10-16T05:10:12;101005.16;;;13.31;100.00
57668;BME280;43499;52.366;12.912;2022-10-16T05:11:14;100996.59;;;13.33;100.00
57668;BME280;43499;52.366;12.912;2022-10-16T05:12:15;100999.22;;;13.33;100.00
57668;BME280;43499;52.366;12.912;2022-10-16T05:13:16;100997.59;;;13.35;100.00
57668;BME280;43499;52.366;12.912;2022-10-16T05:14:17;100993.72;;;13.30;100.00
57668;BME280;43499;52.366;12.912;2022-10-16T05:15:18;100997.50;;;13.34;100.00
57668;BME280;43499;52.366;12.912;2022-10-16T05:16:19;100991.41;;;13.35;100.00
57668;BME280;43499;52.366;12.912;2022-10-16T05:17:21;100992.22;;;13.34;100.00
57668;BME280;43499;52.366;12.912;2022-10-16T05:18:22;101000.81;;;13.31;100.00
57668;BME280;43499;52.366;12.912;2022-10-16T05:19:23;101001.63;;;13.30;100.00
57668;BME280;43499;52.366;12.912;2022-10-16T05:20:24;101000.81;;;13.31;100.00
57668;BME280;43499;52.366;12.912;2022-10-16T05:21:25;101007.72;;;13.29;100.00
57668;BME280;43499;52.366;12.912;2022-10-16T05:22:26;101008.50;;;13.28;100.00
57668;BME280;43499;52.366;12.912;2022-10-16T05:23:27;101007.72;;;13.29;100.00
57668;BME280;43499;52.366;12.912;2022-10-16T05:24:28;101009.31;;;13.27;100.00
57668;BME280;43499;52.366;12.912;2022-10-16T05:25:30;101010.34;;;13.29;100.00
57668;BME280;43499;52.366;12.912;2022-10-16T05:26:31;101014.81;;;13.30;100.00
57668;BME280;43499;52.366;12.912;2022-10-16T05:27:32;101011.16;;;13.28;100.00
57668;BME280;43499;52.366;12.912;2022-10-16T05:28:33;101003.69;;;13.22;100.00
57668;BME280;43499;52.366;12.912;2022-10-16T05:29:34;101007.94;;;13.20;100.00
57668;BME280;43499;52.366;12.912;2022-10-16T05:30:37;101008.63;;;13.18;100.00
57668;BME280;43499;52.366;12.912;2022-10-16T05:31:38;101012.16;;;13.18;100.00
57668;BME280;43499;52.366;12.912;2022-10-16T05:32:39;101013.81;;;13.16;100.00
57668;BME280;43499;52.366;12.912;2022-10-16T05:33:40;101019.97;;;13.17;100.00
57668;BME280;43499;52.366;12.912;2022-10-16T05:34:42;101017.34;;;13.17;100.00
57668;BME280;43499;52.366;12.912;2022-10-16T05:35:43;101013.22;;;13.20;100.00